TimeCDT,TemperatureF,Dew PointF,Humidity,Sea Level PressureIn,VisibilityMPH,Wind Direction,Wind SpeedMPH,Gust SpeedMPH,PrecipitationIn,Events,Conditions,WindDirDegrees,DateUTC
12:53 AM,50.0,48.0,93,30.16,6.0,North,17.3,23.0,0.07,Rain,Heavy Rain,10,2012-10-06 05:53:00
1:09 AM,50.0,48.2,94,30.16,8.0,NNE,15.0,-,0.03,Rain-Thunderstorm,Light Rain,30,2012-10-06 06:09:00
1:24 AM,50.0,48.2,94,30.16,8.0,NNE,15.0,-,0.04,Rain,Heavy Rain,30,2012-10-06 06:24:00
1:31 AM,50.0,48.2,94,30.16,7.0,NNE,13.8,-,0.05,Rain,Light Rain,20,2012-10-06 06:31:00
1:45 AM,50.0,48.2,94,30.16,10.0,NNE,13.8,19.6,N/A,,Overcast,20,2012-10-06 06:45:00
1:53 AM,50.0,48.0,93,30.15,10.0,NNE,13.8,20.7,0.05,,Overcast,30,2012-10-06 06:53:00
2:10 AM,50.0,46.4,87,30.16,10.0,NNE,13.8,19.6,N/A,,Overcast,20,2012-10-06 07:10:00
2:53 AM,48.9,46.0,90,30.16,10.0,NNE,10.4,-,0.01,,Overcast,20,2012-10-06 07:53:00
3:13 AM,48.2,46.4,93,30.17,10.0,North,9.2,-,N/A,,Overcast,10,2012-10-06 08:13:00
3:53 AM,48.9,46.0,90,30.16,10.0,NNE,11.5,-,N/A,,Overcast,20,2012-10-06 08:53:00
4:24 AM,48.2,46.4,93,30.16,10.0,North,12.7,21.9,N/A,,Overcast,10,2012-10-06 09:24:00
4:53 AM,48.9,42.1,77,30.17,10.0,NNE,9.2,20.7,N/A,,Overcast,30,2012-10-06 09:53:00
5:53 AM,48.0,41.0,77,30.19,10.0,NNE,10.4,20.7,N/A,,Overcast,20,2012-10-06 10:53:00
6:53 AM,48.0,42.1,80,30.20,10.0,North,16.1,23.0,N/A,,Overcast,10,2012-10-06 11:53:00
7:53 AM,46.9,41.0,80,30.22,10.0,North,19.6,23.0,0.02,,Overcast,10,2012-10-06 12:53:00
8:53 AM,46.9,39.9,77,30.23,10.0,NNE,18.4,24.2,N/A,,Overcast,20,2012-10-06 13:53:00
9:53 AM,48.9,39.0,69,30.20,10.0,NE,11.5,20.7,N/A,,Overcast,40,2012-10-06 14:53:00
10:53 AM,50.0,37.9,63,30.20,10.0,NNE,11.5,-,N/A,,Overcast,30,2012-10-06 15:53:00
11:53 AM,50.0,39.0,66,30.22,10.0,North,8.1,-,N/A,,Overcast,360,2012-10-06 16:53:00
12:53 PM,50.0,39.9,68,30.22,10.0,North,11.5,-,0.05,,Overcast,350,2012-10-06 17:53:00
1:53 PM,46.0,42.1,86,30.21,10.0,North,11.5,23.0,N/A,,Overcast,10,2012-10-06 18:53:00
2:04 PM,46.4,42.8,87,30.20,10.0,North,12.7,18.4,N/A,,Overcast,360,2012-10-06 19:04:00
2:45 PM,46.4,41.0,81,30.20,10.0,North,10.4,21.9,N/A,,Overcast,360,2012-10-06 19:45:00
2:53 PM,46.0,41.0,83,30.20,10.0,North,12.7,-,N/A,,Overcast,10,2012-10-06 19:53:00
3:53 PM,48.0,41.0,77,30.19,10.0,North,12.7,20.7,0.00,,Overcast,360,2012-10-06 20:53:00
4:53 PM,48.0,41.0,77,30.17,10.0,North,6.9,-,N/A,,Overcast,360,2012-10-06 21:53:00
5:53 PM,48.0,42.1,80,30.17,10.0,North,10.4,-,0.00,,Overcast,360,2012-10-06 22:53:00
6:53 PM,48.9,43.0,80,30.17,10.0,North,10.4,-,N/A,,Overcast,10,2012-10-06 23:53:00
7:53 PM,48.9,42.1,77,30.19,10.0,North,9.2,19.6,0.00,,Overcast,350,2012-10-07 00:53:00
8:14 PM,48.2,42.8,82,30.21,10.0,North,11.5,-,0.00,Rain-Thunderstorm,Light Rain,10,2012-10-07 01:14:00
8:29 PM,46.4,42.8,87,30.22,10.0,North,12.7,-,0.00,,Overcast,360,2012-10-07 01:29:00
8:53 PM,46.0,43.0,89,30.23,10.0,NNE,10.4,19.6,0.01,Rain,Light Rain,20,2012-10-07 01:53:00
9:53 PM,46.0,42.1,86,30.22,10.0,NNE,12.7,20.7,0.01,,Overcast,20,2012-10-07 02:53:00
10:53 PM,46.0,42.1,86,30.25,10.0,North,9.2,-,N/A,,Overcast,10,2012-10-07 03:53:00
11:53 PM,46.9,42.1,83,30.25,-9999.0,North,8.1,-,N/A,,Overcast,10,2012-10-07 04:53:00